sensor_id;sensor_type;location;lat;lon;timestamp;P1;durP1;ratioP1;P2;durP2;ratioP2
5491;SDS011;2768;53.540;10.224;2023-06-10T00:05:50;4.70;;;3.00;;
5491;SDS011;2768;53.540;10.224;2023-06-10T00:11:44;5.20;;;3.57;;
5491;SDS011;2768;53.540;10.224;2023-06-10T00:17:37;6.13;;;3.60;;
5491;SDS011;2768;53.540;10.224;2023-06-10T00:23:34;5.70;;;3.80;;
5491;SDS011;2768;53.540;10.224;2023-06-10T00:29:29;8.23;;;3.80;;
5491;SDS011;2768;53.540;10.224;2023-06-10T00:35:23;6.30;;;4.20;;
5491;SDS011;2768;53.540;10.224;2023-06-10T00:41:18;6.73;;;3.87;;
5491;SDS011;2768;53.540;10.224;2023-06-10T00:47:11;4.97;;;3.50;;
5491;SDS011;2768;53.540;10.224;2023-06-10T00:53:05;7.50;;;3.53;;
5491;SDS011;2768;53.540;10.224;2023-06-10T00:59:01;5.90;;;3.37;;
5491;SDS011;2768;53.540;10.224;2023-06-10T01:04:55;5.70;;;3.57;;
5491;SDS011;2768;53.540;10.224;2023-06-10T01:10:49;8.50;;;3.63;;
5491;SDS011;2768;53.540;10.224;2023-06-10T01:16:47;4.77;;;3.30;;
5491;SDS011;2768;53.540;10.224;2023-06-10T01:22:43;5.67;;;3.50;;
5491;SDS011;2768;53.540;10.224;2023-06-10T01:28:38;6.77;;;3.60;;
5491;SDS011;2768;53.540;10.224;2023-06-10T01:34:37;4.30;;;3.10;;
5491;SDS011;2768;53.540;10.224;2023-06-10T01:40:34;6.30;;;3.50;;
5491;SDS011;2768;53.540;10.224;2023-06-10T01:46:28;5.93;;;2.60;;
5491;SDS011;2768;53.540;10.224;2023-06-10T01:52:21;3.60;;;2.60;;
5491;SDS011;2768;53.540;10.224;2023-06-10T01:58:16;3.90;;;3.27;;
5491;SDS011;2768;53.540;10.224;2023-06-10T02:04:10;6.30;;;2.87;;
5491;SDS011;2768;53.540;10.224;2023-06-10T02:10:03;6.83;;;3.13;;
5491;SDS011;2768;53.540;10.224;2023-06-10T02:15:59;7.13;;;3.07;;
5491;SDS011;2768;53.540;10.224;2023-06-10T02:21:53;7.60;;;2.97;;
5491;SDS011;2768;53.540;10.224;2023-06-10T02:27:47;7.80;;;3.10;;
5491;SDS011;2768;53.540;10.224;2023-06-10T02:33:42;6.90;;;2.80;;
5491;SDS011;2768;53.540;10.224;2023-06-10T02:39:36;5.00;;;2.17;;
5491;SDS011;2768;53.540;10.224;2023-06-10T02:45:33;6.60;;;2.30;;
5491;SDS011;2768;53.540;10.224;2023-06-10T02:51:29;4.57;;;3.10;;
5491;SDS011;2768;53.540;10.224;2023-06-10T02:57:25;7.10;;;2.77;;
5491;SDS011;2768;53.540;10.224;2023-06-10T03:03:19;9.00;;;3.00;;
5491;SDS011;2768;53.540;10.224;2023-06-10T03:09:24;5.70;;;2.30;;
5491;SDS011;2768;53.540;10.224;2023-06-10T03:15:21;5.10;;;2.40;;
5491;SDS011;2768;53.540;10.224;2023-06-10T03:21:17;6.37;;;2.37;;
5491;SDS011;2768;53.540;10.224;2023-06-10T03:27:12;5.00;;;2.70;;
5491;SDS011;2768;53.540;10.224;2023-06-10T03:33:08;3.03;;;1.93;;
5491;SDS011;2768;53.540;10.224;2023-06-10T03:39:03;5.40;;;2.30;;
5491;SDS011;2768;53.540;10.224;2023-06-10T03:44:59;6.80;;;2.40;;
5491;SDS011;2768;53.540;10.224;2023-06-10T03:50:54;3.50;;;2.30;;
5491;SDS011;2768;53.540;10.224;2023-06-10T03:56:49;4.80;;;2.40;;
5491;SDS011;2768;53.540;10.224;2023-06-10T04:02:43;6.13;;;2.10;;
5491;SDS011;2768;53.540;10.224;2023-06-10T04:08:52;3.50;;;2.23;;
5491;SDS011;2768;53.540;10.224;2023-06-10T04:14:45;4.00;;;2.60;;
5491;SDS011;2768;53.540;10.224;2023-06-10T04:20:40;5.30;;;2.30;;
5491;SDS011;2768;53.540;10.224;2023-06-10T04:26:34;3.77;;;2.00;;
5491;SDS011;2768;53.540;10.224;2023-06-10T04:32:28;6.63;;;2.10;;
5491;SDS011;2768;53.540;10.224;2023-06-10T04:38:23;6.30;;;2.47;;
5491;SDS011;2768;53.540;10.224;2023-06-10T04:44:17;4.77;;;2.60;;
5491;SDS011;2768;53.540;10.224;2023-06-10T04:50:12;4.93;;;2.40;;
5491;SDS011;2768;53.540;10.224;2023-06-10T04:56:06;5.13;;;2.07;;
5491;SDS011;2768;53.540;10.224;2023-06-10T05:02:00;5.80;;;2.40;;
5491;SDS011;2768;53.540;10.224;2023-06-10T05:07:54;5.30;;;1.80;;
5491;SDS011;2768;53.540;10.224;2023-06-10T05:13:49;3.63;;;2.00;;
5491;SDS011;2768;53.540;10.224;2023-06-10T05:19:42;5.17;;;2.27;;
5491;SDS011;2768;53.540;10.224;2023-06-10T05:25:36;5.00;;;1.93;;
5491;SDS011;2768;53.540;10.224;2023-06-10T05:31:31;5.00;;;2.00;;
5491;SDS011;2768;53.540;10.224;2023-06-10T05:37:24;10.93;;;2.03;;
5491;SDS011;2768;53.540;10.224;2023-06-10T05:43:17;3.63;;;2.10;;
5491;SDS011;2768;53.540;10.224;2023-06-10T05:49:12;4.30;;;1.97;;
5491;SDS011;2768;53.540;10.224;2023-06-10T05:55:06;7.03;;;2.27;;
5491;SDS011;2768;53.540;10.224;2023-06-10T06:01:00;4.73;;;1.80;;
5491;SDS011;2768;53.540;10.224;2023-06-10T06:06:55;5.90;;;2.30;;
5491;SDS011;2768;53.540;10.224;2023-06-10T06:12:49;10.87;;;3.10;;
5491;SDS011;2768;53.540;10.224;2023-06-10T06:18:42;8.13;;;2.90;;
5491;SDS011;2768;53.540;10.224;2023-06-10T06:24:36;7.37;;;2.90;;
5491;SDS011;2768;53.540;10.224;2023-06-10T06:30:30;6.70;;;2.30;;
5491;SDS011;2768;53.540;10.224;2023-06-10T06:36:24;7.53;;;3.30;;
5491;SDS011;2768;53.540;10.224;2023-06-10T06:42:18;6.07;;;2.97;;
5491;SDS011;2768;53.540;10.224;2023-06-10T06:48:35;7.10;;;2.60;;
5491;SDS011;2768;53.540;10.224;2023-06-10T06:54:29;5.00;;;2.33;;
5491;SDS011;2768;53.540;10.224;2023-06-10T07:00:24;4.30;;;2.20;;
5491;SDS011;2768;53.540;10.224;2023-06-10T07:06:17;7.53;;;2.30;;
5491;SDS011;2768;53.540;10.224;2023-06-10T07:12:11;4.67;;;2.23;;
5491;SDS011;2768;53.540;10.224;2023-06-10T07:18:06;8.33;;;2.97;;
5491;SDS011;2768;53.540;10.224;2023-06-10T07:24:00;5.27;;;2.40;;
5491;SDS011;2768;53.540;10.224;2023-06-10T07:29:53;4.77;;;2.07;;
5491;SDS011;2768;53.540;10.224;2023-06-10T07:35:47;3.90;;;3.10;;
5491;SDS011;2768;53.540;10.224;2023-06-10T07:41:41;7.07;;;2.43;;
5491;SDS011;2768;53.540;10.224;2023-06-10T07:47:34;5.93;;;2.60;;
5491;SDS011;2768;53.540;10.224;2023-06-10T07:53:29;5.73;;;2.40;;
5491;SDS011;2768;53.540;10.224;2023-06-10T07:59:23;5.83;;;2.30;;
5491;SDS011;2768;53.540;10.224;2023-06-10T08:05:17;4.20;;;2.10;;
5491;SDS011;2768;53.540;10.224;2023-06-10T08:11:12;7.80;;;3.17;;
5491;SDS011;2768;53.540;10.224;2023-06-10T08:17:06;4.90;;;2.80;;
5491;SDS011;2768;53.540;10.224;2023-06-10T08:23:00;4.40;;;2.27;;
5491;SDS011;2768;53.540;10.224;2023-06-10T08:28:55;6.00;;;2.70;;
5491;SDS011;2768;53.540;10.224;2023-06-10T08:34:48;4.47;;;2.30;;
5491;SDS011;2768;53.540;10.224;2023-06-10T08:40:41;6.83;;;3.07;;
5491;SDS011;2768;53.540;10.224;2023-06-10T08:46:37;3.53;;;2.30;;
5491;SDS011;2768;53.540;10.224;2023-06-10T08:52:34;6.67;;;2.87;;
5491;SDS011;2768;53.540;10.224;2023-06-10T08:58:29;5.33;;;2.90;;
5491;SDS011;2768;53.540;10.224;2023-06-10T09:04:26;3.50;;;2.40;;
5491;SDS011;2768;53.540;10.224;2023-06-10T09:10:20;7.27;;;2.73;;
5491;SDS011;2768;53.540;10.224;2023-06-10T09:16:13;5.67;;;2.47;;
5491;SDS011;2768;53.540;10.224;2023-06-10T09:22:09;4.03;;;2.90;;
5491;SDS011;2768;53.540;10.224;2023-06-10T09:28:03;4.30;;;3.33;;
5491;SDS011;2768;53.540;10.224;2023-06-10T09:34:04;6.80;;;3.20;;
5491;SDS011;2768;53.540;10.224;2023-06-10T09:40:04;5.27;;;3.03;;
5491;SDS011;2768;53.540;10.224;2023-06-10T09:45:59;4.50;;;2.97;;
5491;SDS011;2768;53.540;10.224;2023-06-10T09:51:54;4.60;;;3.17;;
5491;SDS011;2768;53.540;10.224;2023-06-10T09:57:52;5.73;;;3.13;;
5491;SDS011;2768;53.540;10.224;2023-06-10T10:03:47;7.97;;;3.20;;
5491;SDS011;2768;53.540;10.224;2023-06-10T10:09:42;5.27;;;3.47;;
5491;SDS011;2768;53.540;10.224;2023-06-10T10:15:37;6.13;;;3.23;;
5491;SDS011;2768;53.540;10.224;2023-06-10T10:21:34;7.03;;;4.00;;
5491;SDS011;2768;53.540;10.224;2023-06-10T10:27:33;7.43;;;4.20;;
5491;SDS011;2768;53.540;10.224;2023-06-10T10:33:31;6.53;;;3.70;;
5491;SDS011;2768;53.540;10.224;2023-06-10T10:39:33;5.40;;;3.63;;
5491;SDS011;2768;53.540;10.224;2023-06-10T10:45:28;9.33;;;4.00;;
5491;SDS011;2768;53.540;10.224;2023-06-10T10:51:23;5.50;;;3.27;;
5491;SDS011;2768;53.540;10.224;2023-06-10T10:57:17;6.10;;;3.77;;
5491;SDS011;2768;53.540;10.224;2023-06-10T11:03:13;5.70;;;3.90;;
5491;SDS011;2768;53.540;10.224;2023-06-10T11:09:28;5.40;;;3.77;;
5491;SDS011;2768;53.540;10.224;2023-06-10T11:15:23;4.93;;;3.57;;
5491;SDS011;2768;53.540;10.224;2023-06-10T11:21:18;5.33;;;3.80;;
5491;SDS011;2768;53.540;10.224;2023-06-10T11:27:17;6.63;;;4.47;;
5491;SDS011;2768;53.540;10.224;2023-06-10T11:33:13;6.57;;;4.03;;
5491;SDS011;2768;53.540;10.224;2023-06-10T11:39:09;6.83;;;3.83;;
5491;SDS011;2768;53.540;10.224;2023-06-10T11:45:05;7.63;;;4.00;;
5491;SDS011;2768;53.540;10.224;2023-06-10T11:51:01;6.03;;;4.40;;
5491;SDS011;2768;53.540;10.224;2023-06-10T11:56:58;7.10;;;4.27;;
5491;SDS011;2768;53.540;10.224;2023-06-10T12:02:56;7.17;;;3.60;;
5491;SDS011;2768;53.540;10.224;2023-06-10T12:08:50;5.70;;;4.33;;
5491;SDS011;2768;53.540;10.224;2023-06-10T12:14:50;7.30;;;3.60;;
5491;SDS011;2768;53.540;10.224;2023-06-10T12:20:46;5.43;;;3.70;;
5491;SDS011;2768;53.540;10.224;2023-06-10T12:26:41;7.70;;;4.77;;
5491;SDS011;2768;53.540;10.224;2023-06-10T12:32:37;6.67;;;4.63;;
5491;SDS011;2768;53.540;10.224;2023-06-10T12:38:33;6.17;;;4.17;;
5491;SDS011;2768;53.540;10.224;2023-06-10T12:44:30;6.27;;;4.17;;
5491;SDS011;2768;53.540;10.224;2023-06-10T12:50:26;4.37;;;3.97;;
5491;SDS011;2768;53.540;10.224;2023-06-10T12:56:20;7.87;;;3.57;;
5491;SDS011;2768;53.540;10.224;2023-06-10T13:02:15;4.13;;;3.47;;
5491;SDS011;2768;53.540;10.224;2023-06-10T13:08:09;5.03;;;3.83;;
5491;SDS011;2768;53.540;10.224;2023-06-10T13:14:04;3.93;;;3.53;;
5491;SDS011;2768;53.540;10.224;2023-06-10T13:19:57;5.30;;;3.47;;
5491;SDS011;2768;53.540;10.224;2023-06-10T13:25:51;5.40;;;4.00;;
5491;SDS011;2768;53.540;10.224;2023-06-10T13:31:45;6.87;;;3.13;;
5491;SDS011;2768;53.540;10.224;2023-06-10T13:37:39;6.63;;;3.50;;
5491;SDS011;2768;53.540;10.224;2023-06-10T13:43:32;6.03;;;3.10;;
5491;SDS011;2768;53.540;10.224;2023-06-10T13:49:27;4.17;;;2.90;;
5491;SDS011;2768;53.540;10.224;2023-06-10T13:55:20;5.57;;;2.90;;
5491;SDS011;2768;53.540;10.224;2023-06-10T14:01:13;5.33;;;3.10;;
5491;SDS011;2768;53.540;10.224;2023-06-10T14:07:08;5.00;;;2.63;;
5491;SDS011;2768;53.540;10.224;2023-06-10T14:13:01;8.93;;;3.27;;
5491;SDS011;2768;53.540;10.224;2023-06-10T14:18:55;6.03;;;2.70;;
5491;SDS011;2768;53.540;10.224;2023-06-10T14:24:51;5.07;;;2.70;;
5491;SDS011;2768;53.540;10.224;2023-06-10T14:30:44;7.27;;;2.43;;
5491;SDS011;2768;53.540;10.224;2023-06-10T14:36:38;7.20;;;3.13;;
5491;SDS011;2768;53.540;10.224;2023-06-10T14:42:33;4.73;;;2.63;;
5491;SDS011;2768;53.540;10.224;2023-06-10T14:48:26;4.53;;;2.80;;
5491;SDS011;2768;53.540;10.224;2023-06-10T14:54:19;5.10;;;2.37;;
5491;SDS011;2768;53.540;10.224;2023-06-10T15:00:14;8.43;;;2.87;;
5491;SDS011;2768;53.540;10.224;2023-06-10T15:06:11;7.67;;;2.93;;
5491;SDS011;2768;53.540;10.224;2023-06-10T15:12:05;6.63;;;2.97;;
5491;SDS011;2768;53.540;10.224;2023-06-10T15:18:00;5.50;;;2.97;;
5491;SDS011;2768;53.540;10.224;2023-06-10T15:23:54;6.07;;;3.10;;
5491;SDS011;2768;53.540;10.224;2023-06-10T15:29:47;5.93;;;2.90;;
5491;SDS011;2768;53.540;10.224;2023-06-10T15:35:42;5.10;;;3.27;;
5491;SDS011;2768;53.540;10.224;2023-06-10T15:41:35;6.10;;;2.77;;
5491;SDS011;2768;53.540;10.224;2023-06-10T15:47:29;7.33;;;3.30;;
5491;SDS011;2768;53.540;10.224;2023-06-10T15:53:23;4.40;;;2.37;;
5491;SDS011;2768;53.540;10.224;2023-06-10T15:59:17;6.50;;;3.47;;
5491;SDS011;2768;53.540;10.224;2023-06-10T16:05:10;6.47;;;2.70;;
5491;SDS011;2768;53.540;10.224;2023-06-10T16:11:05;6.53;;;2.90;;
5491;SDS011;2768;53.540;10.224;2023-06-10T16:16:58;6.57;;;3.07;;
5491;SDS011;2768;53.540;10.224;2023-06-10T16:22:52;6.47;;;3.63;;
5491;SDS011;2768;53.540;10.224;2023-06-10T16:28:47;6.47;;;3.20;;
5491;SDS011;2768;53.540;10.224;2023-06-10T16:34:40;6.90;;;3.53;;
5491;SDS011;2768;53.540;10.224;2023-06-10T16:40:34;5.27;;;3.00;;
5491;SDS011;2768;53.540;10.224;2023-06-10T16:46:28;6.50;;;2.83;;
5491;SDS011;2768;53.540;10.224;2023-06-10T16:52:21;7.63;;;3.00;;
5491;SDS011;2768;53.540;10.224;2023-06-10T16:58:15;3.93;;;2.47;;
5491;SDS011;2768;53.540;10.224;2023-06-10T17:04:10;6.40;;;3.20;;
5491;SDS011;2768;53.540;10.224;2023-06-10T17:10:04;8.73;;;3.70;;
5491;SDS011;2768;53.540;10.224;2023-06-10T17:15:58;4.97;;;2.77;;
5491;SDS011;2768;53.540;10.224;2023-06-10T17:21:53;10.80;;;3.13;;
5491;SDS011;2768;53.540;10.224;2023-06-10T17:27:47;6.63;;;3.07;;
5491;SDS011;2768;53.540;10.224;2023-06-10T17:33:41;5.00;;;3.10;;
5491;SDS011;2768;53.540;10.224;2023-06-10T17:39:36;4.97;;;3.07;;
5491;SDS011;2768;53.540;10.224;2023-06-10T17:45:29;7.57;;;3.53;;
5491;SDS011;2768;53.540;10.224;2023-06-10T17:51:22;5.57;;;3.00;;
5491;SDS011;2768;53.540;10.224;2023-06-10T17:57:17;5.73;;;2.87;;
5491;SDS011;2768;53.540;10.224;2023-06-10T18:03:10;6.10;;;2.70;;
5491;SDS011;2768;53.540;10.224;2023-06-10T18:09:04;5.10;;;2.70;;
5491;SDS011;2768;53.540;10.224;2023-06-10T18:15:02;6.40;;;3.00;;
5491;SDS011;2768;53.540;10.224;2023-06-10T18:20:57;10.07;;;4.00;;
5491;SDS011;2768;53.540;10.224;2023-06-10T18:26:53;5.97;;;3.07;;
5491;SDS011;2768;53.540;10.224;2023-06-10T18:32:48;9.60;;;4.20;;
5491;SDS011;2768;53.540;10.224;2023-06-10T18:38:41;7.23;;;3.17;;
5491;SDS011;2768;53.540;10.224;2023-06-10T18:44:34;6.03;;;3.57;;
5491;SDS011;2768;53.540;10.224;2023-06-10T18:50:29;7.70;;;3.20;;
5491;SDS011;2768;53.540;10.224;2023-06-10T18:56:22;11.57;;;3.63;;
5491;SDS011;2768;53.540;10.224;2023-06-10T19:02:16;7.10;;;4.27;;
5491;SDS011;2768;53.540;10.224;2023-06-10T19:08:11;6.00;;;4.57;;
5491;SDS011;2768;53.540;10.224;2023-06-10T19:14:04;5.27;;;3.60;;
5491;SDS011;2768;53.540;10.224;2023-06-10T19:19:58;4.83;;;3.50;;
5491;SDS011;2768;53.540;10.224;2023-06-10T19:25:53;5.63;;;3.47;;
5491;SDS011;2768;53.540;10.224;2023-06-10T19:31:46;14.03;;;3.77;;
5491;SDS011;2768;53.540;10.224;2023-06-10T19:37:39;5.27;;;3.30;;
5491;SDS011;2768;53.540;10.224;2023-06-10T19:43:34;5.83;;;3.03;;
5491;SDS011;2768;53.540;10.224;2023-06-10T19:49:28;5.77;;;3.10;;
5491;SDS011;2768;53.540;10.224;2023-06-10T19:55:22;5.60;;;3.43;;
5491;SDS011;2768;53.540;10.224;2023-06-10T20:01:16;5.47;;;2.83;;
5491;SDS011;2768;53.540;10.224;2023-06-10T20:07:10;7.00;;;3.60;;
5491;SDS011;2768;53.540;10.224;2023-06-10T20:13:04;8.27;;;3.17;;
5491;SDS011;2768;53.540;10.224;2023-06-10T20:18:59;8.50;;;2.63;;
5491;SDS011;2768;53.540;10.224;2023-06-10T20:24:54;4.50;;;2.93;;
5491;SDS011;2768;53.540;10.224;2023-06-10T20:30:48;6.20;;;2.90;;
5491;SDS011;2768;53.540;10.224;2023-06-10T20:36:43;5.93;;;2.67;;
5491;SDS011;2768;53.540;10.224;2023-06-10T20:42:36;6.00;;;2.77;;
5491;SDS011;2768;53.540;10.224;2023-06-10T20:48:30;6.67;;;3.03;;
5491;SDS011;2768;53.540;10.224;2023-06-10T20:54:25;6.23;;;2.63;;
5491;SDS011;2768;53.540;10.224;2023-06-10T21:00:18;4.23;;;2.87;;
5491;SDS011;2768;53.540;10.224;2023-06-10T21:06:12;4.33;;;2.40;;
5491;SDS011;2768;53.540;10.224;2023-06-10T21:12:07;2.70;;;2.50;;
5491;SDS011;2768;53.540;10.224;2023-06-10T21:18:01;4.83;;;2.60;;
5491;SDS011;2768;53.540;10.224;2023-06-10T21:23:55;5.57;;;2.00;;
5491;SDS011;2768;53.540;10.224;2023-06-10T21:29:50;5.77;;;2.67;;
5491;SDS011;2768;53.540;10.224;2023-06-10T21:35:44;6.10;;;2.40;;
5491;SDS011;2768;53.540;10.224;2023-06-10T21:41:38;2.57;;;2.37;;
5491;SDS011;2768;53.540;10.224;2023-06-10T21:47:32;3.70;;;2.37;;
5491;SDS011;2768;53.540;10.224;2023-06-10T21:53:26;4.53;;;2.40;;
5491;SDS011;2768;53.540;10.224;2023-06-10T21:59:20;5.40;;;2.83;;
5491;SDS011;2768;53.540;10.224;2023-06-10T22:05:15;7.13;;;2.33;;
5491;SDS011;2768;53.540;10.224;2023-06-10T22:11:09;9.80;;;1.60;;
5491;SDS011;2768;53.540;10.224;2023-06-10T22:17:02;4.57;;;2.30;;
5491;SDS011;2768;53.540;10.224;2023-06-10T22:22:57;7.50;;;1.90;;
5491;SDS011;2768;53.540;10.224;2023-06-10T22:28:51;3.07;;;1.63;;
5491;SDS011;2768;53.540;10.224;2023-06-10T22:34:44;4.97;;;2.00;;
5491;SDS011;2768;53.540;10.224;2023-06-10T22:40:40;7.13;;;2.50;;
5491;SDS011;2768;53.540;10.224;2023-06-10T22:46:33;4.23;;;1.77;;
5491;SDS011;2768;53.540;10.224;2023-06-10T22:52:27;2.80;;;1.90;;
5491;SDS011;2768;53.540;10.224;2023-06-10T22:58:22;4.53;;;1.97;;
5491;SDS011;2768;53.540;10.224;2023-06-10T23:04:15;2.40;;;1.77;;
5491;SDS011;2768;53.540;10.224;2023-06-10T23:10:09;3.40;;;1.87;;
5491;SDS011;2768;53.540;10.224;2023-06-10T23:16:04;4.63;;;2.60;;
5491;SDS011;2768;53.540;10.224;2023-06-10T23:21:57;5.07;;;1.80;;
5491;SDS011;2768;53.540;10.224;2023-06-10T23:27:51;6.80;;;2.33;;
5491;SDS011;2768;53.540;10.224;2023-06-10T23:33:46;3.87;;;2.07;;
5491;SDS011;2768;53.540;10.224;2023-06-10T23:39:40;3.80;;;1.80;;
5491;SDS011;2768;53.540;10.224;2023-06-10T23:45:36;5.83;;;2.13;;
5491;SDS011;2768;53.540;10.224;2023-06-10T23:51:31;1.50;;;1.40;;
5491;SDS011;2768;53.540;10.224;2023-06-10T23:57:24;3.53;;;1.60;;
